createdAt,value
2022-08-19T00:02:04.265Z,101364.19
2022-08-19T00:04:37.374Z,101365.31
2022-08-19T00:07:06.700Z,101357.97
2022-08-19T00:09:33.848Z,101355.38
2022-08-19T00:12:00.867Z,101351.38
2022-08-19T00:14:32.258Z,101351.88
2022-08-19T00:16:59.657Z,101344.13
2022-08-19T00:19:26.537Z,101343.38
2022-08-19T00:21:54.377Z,101342.50
2022-08-19T00:24:21.483Z,101359.66
2022-08-19T00:26:48.410Z,101362.91
2022-08-19T00:29:18.355Z,101355.63
2022-08-19T00:31:46.045Z,101353.34
2022-08-19T00:34:14.739Z,101346.06
2022-08-19T00:36:43.555Z,101348.75
2022-08-19T00:39:11.714Z,101345.34
2022-08-19T00:41:39.012Z,101336.03
2022-08-19T00:44:13.551Z,101344.94
2022-08-19T00:46:43.510Z,101341.19
2022-08-19T00:49:22.353Z,101327.31
2022-08-19T00:51:58.615Z,101338.31
2022-08-19T00:54:31.164Z,101334.78
2022-08-19T00:57:00.331Z,101335.63
2022-08-19T01:00:01.048Z,101338.00
2022-08-19T01:02:17.786Z,101339.59
2022-08-19T01:04:44.660Z,101339.06
2022-08-19T01:07:15.010Z,101344.13
2022-08-19T01:09:44.365Z,101328.72
2022-08-19T01:12:12.163Z,101320.75
2022-08-19T01:14:40.944Z,101323.31
2022-08-19T01:17:10.759Z,101313.28
2022-08-19T01:19:44.018Z,101314.84
2022-08-19T01:22:33.939Z,101305.25
2022-08-19T01:25:02.363Z,101303.13
2022-08-19T01:27:43.870Z,101296.25
2022-08-19T01:30:15.412Z,101305.81
2022-08-19T01:32:42.305Z,101309.03
2022-08-19T01:35:10.028Z,101309.44
2022-08-19T01:37:57.964Z,101305.28
2022-08-19T01:40:28.181Z,101306.31
2022-08-19T01:42:55.389Z,101304.03
2022-08-19T01:45:25.112Z,101306.16
2022-08-19T01:48:02.354Z,101312.16
2022-08-19T01:50:31.954Z,101310.75
2022-08-19T01:53:06.118Z,101318.94
2022-08-19T01:55:41.209Z,101312.69
2022-08-19T01:58:17.577Z,101311.81
2022-08-19T02:00:44.960Z,101308.59
2022-08-19T02:03:12.379Z,101311.09
2022-08-19T02:05:40.888Z,101309.06
2022-08-19T02:08:08.461Z,101312.13
2022-08-19T02:10:40.548Z,101304.59
2022-08-19T02:13:07.704Z,101316.13
2022-08-19T02:15:34.671Z,101315.22
2022-08-19T02:18:01.557Z,101309.22
2022-08-19T02:20:28.335Z,101313.53
2022-08-19T02:22:55.302Z,101317.19
2022-08-19T02:25:22.165Z,101316.22
2022-08-19T02:27:48.995Z,101311.47
2022-08-19T02:30:18.287Z,101308.72
2022-08-19T02:32:45.259Z,101309.38
2022-08-19T02:35:13.758Z,101315.28
2022-08-19T02:38:01.556Z,101320.38
2022-08-19T02:40:29.861Z,101313.50
2022-08-19T02:42:57.323Z,101324.56
2022-08-19T02:45:24.225Z,101330.16
2022-08-19T02:47:51.106Z,101328.50
2022-08-19T02:50:18.689Z,101317.78
2022-08-19T02:52:46.407Z,101320.69
2022-08-19T02:55:13.309Z,101321.78
2022-08-19T02:57:40.152Z,101321.00
2022-08-19T03:00:08.768Z,101320.91
2022-08-19T03:02:35.879Z,101329.31
2022-08-19T03:05:05.507Z,101321.69
2022-08-19T03:07:32.339Z,101324.66
2022-08-19T03:09:59.464Z,101324.00
2022-08-19T03:12:26.501Z,101317.44
2022-08-19T03:14:53.825Z,101315.28
2022-08-19T03:17:20.909Z,101313.00
2022-08-19T03:19:47.814Z,101310.91
2022-08-19T03:22:15.077Z,101311.34
2022-08-19T03:24:41.984Z,101311.00
2022-08-19T03:27:08.804Z,101312.06
2022-08-19T03:29:43.170Z,101315.78
2022-08-19T03:32:32.457Z,101308.50
2022-08-19T03:34:58.492Z,101304.41
2022-08-19T03:37:25.309Z,101313.84
2022-08-19T03:39:52.798Z,101313.16
2022-08-19T03:42:45.440Z,101313.16
2022-08-19T03:45:08.428Z,101313.94
2022-08-19T03:47:35.245Z,101302.75
2022-08-19T03:50:02.473Z,101308.59
2022-08-19T03:52:29.454Z,101314.16
2022-08-19T03:54:56.339Z,101319.75
2022-08-19T03:57:32.125Z,101321.81
2022-08-19T04:00:04.129Z,101322.84
2022-08-19T04:02:42.837Z,101326.13
2022-08-19T04:05:27.811Z,101326.28
2022-08-19T04:07:56.048Z,101322.25
2022-08-19T04:10:23.467Z,101324.34
2022-08-19T04:12:50.301Z,101325.81
2022-08-19T04:15:18.192Z,101325.94
2022-08-19T04:17:45.186Z,101310.50
2022-08-19T04:20:12.007Z,101309.53
2022-08-19T04:22:38.818Z,101308.50
2022-08-19T04:25:06.037Z,101305.84
2022-08-19T04:27:34.347Z,101307.81
2022-08-19T04:30:01.136Z,101307.13
2022-08-19T04:32:28.133Z,101308.09
2022-08-19T04:35:02.654Z,101308.66
2022-08-19T04:37:44.589Z,101306.66
2022-08-19T04:40:30.380Z,101300.84
2022-08-19T04:42:57.404Z,101306.19
2022-08-19T04:45:24.307Z,101299.75
2022-08-19T04:47:58.850Z,101298.31
2022-08-19T04:50:44.327Z,101298.47
2022-08-19T04:53:11.558Z,101297.63
2022-08-19T04:55:43.108Z,101296.19
2022-08-19T04:58:09.951Z,101289.16
2022-08-19T05:00:39.579Z,101289.16
2022-08-19T05:03:07.720Z,101293.00
2022-08-19T05:05:44.985Z,101288.75
2022-08-19T05:08:31.098Z,101302.03
2022-08-19T05:10:58.570Z,101302.84
2022-08-19T05:13:25.467Z,101300.16
2022-08-19T05:15:59.201Z,101297.09
2022-08-19T05:18:45.532Z,101299.28
2022-08-19T05:21:33.923Z,101299.78
2022-08-19T05:24:00.893Z,101301.09
2022-08-19T05:26:27.758Z,101303.63
2022-08-19T05:28:54.923Z,101305.94
2022-08-19T05:31:22.543Z,101309.25
2022-08-19T05:33:51.383Z,101302.38
2022-08-19T05:36:20.652Z,101309.09
2022-08-19T05:38:48.564Z,101298.09
2022-08-19T05:41:16.408Z,101287.47
2022-08-19T05:43:43.276Z,101287.91
2022-08-19T05:46:27.972Z,101275.63
2022-08-19T05:48:57.370Z,101272.59
2022-08-19T05:51:28.969Z,101275.00
2022-08-19T05:53:56.228Z,101272.00
2022-08-19T05:56:23.176Z,101272.34
2022-08-19T05:58:50.153Z,101268.03
2022-08-19T06:01:19.370Z,101277.34
2022-08-19T06:03:46.828Z,101262.72
2022-08-19T06:06:15.991Z,101273.03
2022-08-19T06:08:44.033Z,101278.50
2022-08-19T06:11:33.625Z,101277.97
2022-08-19T06:14:04.950Z,101278.19
2022-08-19T06:16:32.719Z,101272.56
2022-08-19T06:19:02.888Z,101270.31
2022-08-19T06:21:31.195Z,101265.94
2022-08-19T06:23:58.479Z,101267.50
2022-08-19T06:26:25.573Z,101277.66
2022-08-19T06:28:52.376Z,101281.06
2022-08-19T06:31:23.158Z,101272.19
2022-08-19T06:33:50.752Z,101266.41
2022-08-19T06:36:34.875Z,101265.78
2022-08-19T06:39:07.093Z,101268.50
2022-08-19T06:41:43.645Z,101258.03
2022-08-19T06:44:19.612Z,101262.41
2022-08-19T06:46:53.682Z,101259.66
2022-08-19T06:49:23.034Z,101258.09
2022-08-19T06:51:51.851Z,101253.66
2022-08-19T06:54:20.463Z,101260.31
2022-08-19T06:56:48.043Z,101261.75
2022-08-19T06:59:18.821Z,101270.00
2022-08-19T07:01:50.980Z,101275.22
2022-08-19T07:04:26.461Z,101268.13
2022-08-19T07:07:12.490Z,101276.66
2022-08-19T07:09:57.767Z,101276.44
2022-08-19T07:12:35.880Z,101275.91
2022-08-19T07:15:11.809Z,101269.22
2022-08-19T07:17:41.759Z,101282.16
2022-08-19T07:20:10.209Z,101281.94
2022-08-19T07:22:41.130Z,101284.63
2022-08-19T07:25:10.154Z,101283.59
2022-08-19T07:27:38.079Z,101275.25
2022-08-19T07:30:12.120Z,101272.78
2022-08-19T07:32:39.989Z,101275.06
2022-08-19T07:35:07.854Z,101282.31
2022-08-19T07:37:37.988Z,101275.22
2022-08-19T07:40:06.959Z,101268.03
2022-08-19T07:42:33.840Z,101266.31
2022-08-19T07:45:00.687Z,101274.16
2022-08-19T07:47:48.969Z,101273.69
2022-08-19T07:50:16.739Z,101278.25
2022-08-19T07:52:45.696Z,101276.19
2022-08-19T07:55:41.626Z,101267.38
2022-08-19T07:58:05.836Z,101281.44
2022-08-19T08:00:32.700Z,101294.69
2022-08-19T08:02:59.562Z,101291.88
2022-08-19T08:05:45.550Z,101296.84
2022-08-19T08:08:32.275Z,101301.72
2022-08-19T08:11:00.210Z,101306.47
2022-08-19T08:13:28.134Z,101298.47
2022-08-19T08:15:56.560Z,101299.19
2022-08-19T08:18:27.542Z,101304.69
2022-08-19T08:20:56.559Z,101305.84
2022-08-19T08:23:26.318Z,101302.63
2022-08-19T08:25:57.653Z,101303.81
2022-08-19T08:28:29.719Z,101309.78
2022-08-19T08:30:58.296Z,101314.28
2022-08-19T08:33:34.010Z,101318.34
2022-08-19T08:36:11.925Z,101319.81
2022-08-19T08:38:40.905Z,101317.44
2022-08-19T08:41:42.078Z,101323.25
2022-08-19T08:44:19.939Z,101328.34
2022-08-19T08:46:52.972Z,101323.88
2022-08-19T08:49:35.192Z,101328.16
2022-08-19T08:52:12.600Z,101329.34
2022-08-19T08:54:49.146Z,101331.06
2022-08-19T08:57:40.626Z,101335.34
2022-08-19T09:00:17.280Z,101322.38
2022-08-19T09:02:44.997Z,101339.03
2022-08-19T09:05:22.270Z,101326.66
2022-08-19T09:08:08.033Z,101333.91
2022-08-19T09:10:44.201Z,101329.91
2022-08-19T09:13:37.837Z,101337.22
2022-08-19T09:16:13.453Z,101325.84
2022-08-19T09:18:53.006Z,101329.41
2022-08-19T09:21:30.310Z,101332.19
2022-08-19T09:24:00.250Z,101334.66
2022-08-19T09:26:47.208Z,101334.91
2022-08-19T09:29:15.063Z,101322.72
2022-08-19T09:31:42.038Z,101336.72
2022-08-19T09:34:21.359Z,101327.13
2022-08-19T09:36:54.086Z,101323.84
2022-08-19T09:39:22.128Z,101320.31
2022-08-19T09:41:50.690Z,101328.28
2022-08-19T09:44:18.114Z,101327.28
2022-08-19T09:46:48.081Z,101327.41
2022-08-19T09:49:18.254Z,101322.13
2022-08-19T09:51:50.453Z,101332.72
2022-08-19T09:54:24.676Z,101333.59
2022-08-19T09:56:53.903Z,101332.75
2022-08-19T09:59:21.400Z,101322.13
2022-08-19T10:01:48.361Z,101324.78
2022-08-19T10:04:20.030Z,101327.41
2022-08-19T10:06:53.596Z,101320.31
2022-08-19T10:09:33.787Z,101327.38
2022-08-19T10:12:02.676Z,101320.09
2022-08-19T10:14:30.806Z,101318.28
2022-08-19T10:16:59.278Z,101322.63
2022-08-19T10:19:26.830Z,101320.81
2022-08-19T10:22:00.078Z,101324.25
2022-08-19T10:24:28.885Z,101317.06
2022-08-19T10:26:58.933Z,101315.56
2022-08-19T10:29:33.024Z,101313.56
2022-08-19T10:32:03.098Z,101319.84
2022-08-19T10:34:32.085Z,101312.78
2022-08-19T10:37:01.690Z,101315.19
2022-08-19T10:39:32.928Z,101308.91
2022-08-19T10:42:11.711Z,101306.13
2022-08-19T10:44:38.718Z,101296.63
2022-08-19T10:47:22.002Z,101308.44
2022-08-19T10:50:12.603Z,101300.28
2022-08-19T10:52:50.146Z,101300.88
2022-08-19T10:55:42.369Z,101298.22
2022-08-19T10:58:23.222Z,101288.81
2022-08-19T11:00:55.878Z,101297.81
2022-08-19T11:03:23.360Z,101302.28
2022-08-19T11:06:01.313Z,101298.78
2022-08-19T11:08:28.512Z,101289.28
2022-08-19T11:10:58.487Z,101293.91
2022-08-19T11:13:26.045Z,101279.94
2022-08-19T11:16:07.745Z,101285.06
2022-08-19T11:18:44.557Z,101289.88
2022-08-19T11:21:26.071Z,101295.72
2022-08-19T11:23:55.912Z,101301.78
2022-08-19T11:26:24.049Z,101292.34
2022-08-19T11:28:55.042Z,101290.91
2022-08-19T11:31:29.000Z,101284.09
2022-08-19T11:34:00.760Z,101293.88
2022-08-19T11:36:29.191Z,101286.47
2022-08-19T11:38:56.766Z,101286.41
2022-08-19T11:41:24.406Z,101275.56
2022-08-19T11:43:53.798Z,101278.78
2022-08-19T11:46:21.231Z,101287.25
2022-08-19T11:48:50.696Z,101284.50
2022-08-19T11:51:21.541Z,101279.97
2022-08-19T11:53:50.494Z,101281.75
2022-08-19T11:56:18.327Z,101278.88
2022-08-19T11:58:45.883Z,101285.34
2022-08-19T12:01:16.941Z,101279.03
2022-08-19T12:03:46.030Z,101287.25
2022-08-19T12:06:16.087Z,101290.91
2022-08-19T12:08:44.032Z,101290.47
2022-08-19T12:11:14.613Z,101285.31
2022-08-19T12:13:42.129Z,101288.59
2022-08-19T12:16:13.697Z,101285.84
2022-08-19T12:18:47.482Z,101270.78
2022-08-19T12:21:16.069Z,101274.81
2022-08-19T12:23:43.758Z,101278.22
2022-08-19T12:26:12.167Z,101277.13
2022-08-19T12:28:39.693Z,101276.06
2022-08-19T12:31:07.022Z,101264.22
2022-08-19T12:33:34.064Z,101277.91
2022-08-19T12:36:04.753Z,101273.69
2022-08-19T12:38:33.184Z,101277.06
2022-08-19T12:41:00.525Z,101270.03
2022-08-19T12:43:27.973Z,101283.09
2022-08-19T12:45:54.860Z,101280.72
2022-08-19T12:48:34.245Z,101289.91
2022-08-19T12:51:07.733Z,101289.22
2022-08-19T12:53:34.998Z,101283.41
2022-08-19T12:56:12.151Z,101281.66
2022-08-19T12:58:39.744Z,101274.88
2022-08-19T13:01:15.035Z,101273.56
2022-08-19T13:03:47.189Z,101279.88
2022-08-19T13:06:16.020Z,101280.44
2022-08-19T13:08:47.082Z,101274.25
2022-08-19T13:11:18.488Z,101275.59
2022-08-19T13:13:47.330Z,101273.97
2022-08-19T13:16:15.464Z,101269.97
2022-08-19T13:18:44.903Z,101270.16
2022-08-19T13:21:14.573Z,101276.72
2022-08-19T13:23:42.249Z,101272.50
2022-08-19T13:26:10.908Z,101289.59
2022-08-19T13:28:56.422Z,101289.72
2022-08-19T13:31:43.881Z,101306.69
2022-08-19T13:34:11.005Z,101318.66
2022-08-19T13:36:38.402Z,101307.88
2022-08-19T13:39:08.301Z,101310.63
2022-08-19T13:41:36.000Z,101308.72
2022-08-19T13:44:03.563Z,101305.34
2022-08-19T13:46:31.449Z,101306.19
2022-08-19T13:48:58.466Z,101311.50
2022-08-19T13:51:25.419Z,101306.13
2022-08-19T13:53:52.487Z,101304.28
2022-08-19T13:56:25.408Z,101310.34
2022-08-19T13:58:53.003Z,101315.44
2022-08-19T14:01:22.413Z,101311.09
2022-08-19T14:03:51.627Z,101315.38
2022-08-19T14:06:18.438Z,101324.13
2022-08-19T14:08:46.493Z,101314.78
2022-08-19T14:11:13.473Z,101311.50
2022-08-19T14:13:40.692Z,101314.88
2022-08-19T14:16:12.781Z,101318.66
2022-08-19T14:18:40.688Z,101309.94
2022-08-19T14:21:08.241Z,101309.78
2022-08-19T14:23:37.024Z,101305.59
2022-08-19T14:26:10.937Z,101302.13
2022-08-19T14:28:38.100Z,101299.53
2022-08-19T14:31:05.029Z,101291.63
2022-08-19T14:33:33.379Z,101299.06
2022-08-19T14:36:01.449Z,101295.66
2022-08-19T14:38:32.483Z,101293.63
2022-08-19T14:41:11.328Z,101290.09
2022-08-19T14:43:39.330Z,101281.28
2022-08-19T14:46:06.745Z,101274.94
2022-08-19T14:48:33.818Z,101271.28
2022-08-19T14:51:01.475Z,101273.47
2022-08-19T14:53:28.382Z,101272.16
2022-08-19T14:55:55.278Z,101270.34
2022-08-19T14:58:29.246Z,101279.44
2022-08-19T15:01:00.174Z,101272.50
2022-08-19T15:03:27.668Z,101272.50
2022-08-19T15:05:55.057Z,101271.72
2022-08-19T15:08:23.465Z,101269.97
2022-08-19T15:10:50.308Z,101270.88
2022-08-19T15:13:17.329Z,101270.84
2022-08-19T15:15:44.231Z,101272.53
2022-08-19T15:18:12.105Z,101270.88
2022-08-19T15:20:39.234Z,101278.78
2022-08-19T15:23:09.239Z,101281.50
2022-08-19T15:25:36.676Z,101285.91
2022-08-19T15:28:04.452Z,101285.91
2022-08-19T15:30:31.402Z,101281.47
2022-08-19T15:32:59.089Z,101279.66
2022-08-19T15:35:26.448Z,101283.16
2022-08-19T15:37:54.276Z,101283.25
2022-08-19T15:40:22.805Z,101284.84
2022-08-19T15:42:50.022Z,101289.31
2022-08-19T15:45:18.944Z,101292.94
2022-08-19T15:47:46.034Z,101300.94
2022-08-19T15:50:17.047Z,101293.88
2022-08-19T15:52:50.377Z,101292.06
2022-08-19T15:55:29.919Z,101301.81
2022-08-19T15:58:29.717Z,101300.94
2022-08-19T16:01:27.113Z,101300.94
2022-08-19T16:04:15.780Z,101301.78
2022-08-19T16:06:50.668Z,101298.28
2022-08-19T16:09:23.521Z,101307.97
2022-08-19T16:11:56.757Z,101296.50
2022-08-19T16:14:25.160Z,101298.25
2022-08-19T16:16:52.284Z,101309.69
2022-08-19T16:19:20.178Z,101313.78
2022-08-19T16:21:50.282Z,101298.94
2022-08-19T16:24:21.176Z,101304.88
2022-08-19T16:26:49.247Z,101304.88
2022-08-19T16:29:30.253Z,101310.16
2022-08-19T16:32:02.855Z,101312.91
2022-08-19T16:34:30.728Z,101316.31
2022-08-19T16:36:58.000Z,101316.88
2022-08-19T16:39:25.145Z,101320.31
2022-08-19T16:41:52.143Z,101318.34
2022-08-19T16:44:21.013Z,101321.72
2022-08-19T16:46:58.722Z,101326.41
2022-08-19T16:49:54.540Z,101322.00
2022-08-19T16:52:19.002Z,101325.75
2022-08-19T16:54:46.099Z,101326.66
2022-08-19T16:57:13.547Z,101328.47
2022-08-19T16:59:43.675Z,101324.03
2022-08-19T17:02:16.389Z,101316.13
2022-08-19T17:04:43.252Z,101316.88
2022-08-19T17:07:10.773Z,101325.66
2022-08-19T17:09:38.412Z,101318.75
2022-08-19T17:12:05.904Z,101320.59
2022-08-19T17:14:32.825Z,101325.91
2022-08-19T17:16:59.677Z,101320.63
2022-08-19T17:19:28.390Z,101322.31
2022-08-19T17:21:57.751Z,101331.75
2022-08-19T17:24:24.655Z,101327.56
2022-08-19T17:26:51.436Z,101336.31
2022-08-19T17:29:18.237Z,101336.16
2022-08-19T17:31:45.056Z,101335.44
2022-08-19T17:34:11.872Z,101330.03
2022-08-19T17:36:38.725Z,101331.00
2022-08-19T17:39:05.909Z,101324.69
2022-08-19T17:41:34.381Z,101325.84
2022-08-19T17:44:02.909Z,101325.16
2022-08-19T17:46:30.405Z,101322.91
2022-08-19T17:48:58.383Z,101315.03
2022-08-19T17:51:43.285Z,101317.16
2022-08-19T17:54:17.133Z,101322.94
2022-08-19T17:56:46.282Z,101329.03
2022-08-19T17:59:14.080Z,101320.78
2022-08-19T18:01:53.124Z,101332.41
2022-08-19T18:04:23.211Z,101333.22
2022-08-19T18:06:53.048Z,101339.78
2022-08-19T18:09:41.221Z,101338.66
2022-08-19T18:12:14.093Z,101342.94
2022-08-19T18:14:41.705Z,101345.69
2022-08-19T18:17:12.686Z,101348.41
2022-08-19T18:19:43.324Z,101346.66
2022-08-19T18:22:24.953Z,101347.03
2022-08-19T18:24:51.989Z,101342.09
2022-08-19T18:27:18.973Z,101347.16
2022-08-19T18:29:46.114Z,101346.38
2022-08-19T18:32:13.045Z,101350.34
2022-08-19T18:34:42.548Z,101350.84
2022-08-19T18:37:10.600Z,101357.69
2022-08-19T18:39:56.359Z,101367.47
2022-08-19T18:42:41.886Z,101363.09
2022-08-19T18:45:28.564Z,101368.44
2022-08-19T18:48:26.883Z,101365.09
2022-08-19T18:50:59.866Z,101374.72
2022-08-19T18:53:32.983Z,101367.13
2022-08-19T18:56:00.248Z,101374.72
2022-08-19T18:58:32.330Z,101379.22
2022-08-19T19:01:22.024Z,101367.13
2022-08-19T19:03:52.885Z,101379.34
2022-08-19T19:06:22.645Z,101388.97
2022-08-19T19:08:50.821Z,101389.63
2022-08-19T19:11:23.215Z,101387.25
2022-08-19T19:13:50.143Z,101387.53
2022-08-19T19:16:22.417Z,101388.34
2022-08-19T19:18:53.781Z,101389.13
2022-08-19T19:21:23.644Z,101378.75
2022-08-19T19:23:51.788Z,101387.63
2022-08-19T19:26:18.815Z,101385.53
2022-08-19T19:28:47.503Z,101382.00
2022-08-19T19:31:22.756Z,101383.78
2022-08-19T19:33:50.225Z,101378.50
2022-08-19T19:36:17.058Z,101386.38
2022-08-19T19:38:48.564Z,101385.28
2022-08-19T19:41:24.456Z,101380.53
2022-08-19T19:44:10.006Z,101381.63
2022-08-19T19:46:42.736Z,101383.28
2022-08-19T19:49:10.395Z,101390.13
2022-08-19T19:51:41.183Z,101381.13
2022-08-19T19:54:13.640Z,101386.44
2022-08-19T19:56:43.498Z,101389.22
2022-08-19T19:59:10.603Z,101386.28
2022-08-19T20:01:37.552Z,101383.53
2022-08-19T20:04:04.957Z,101391.50
2022-08-19T20:06:31.873Z,101404.53
2022-08-19T20:09:07.914Z,101398.09
2022-08-19T20:11:49.036Z,101394.91
2022-08-19T20:14:26.974Z,101395.84
2022-08-19T20:16:55.713Z,101400.06
2022-08-19T20:19:28.340Z,101396.56
2022-08-19T20:21:55.832Z,101401.44
2022-08-19T20:24:28.791Z,101393.88
2022-08-19T20:26:56.028Z,101398.88
2022-08-19T20:29:38.942Z,101394.16
2022-08-19T20:32:07.705Z,101392.72
2022-08-19T20:34:34.826Z,101381.31
2022-08-19T20:37:02.055Z,101393.19
2022-08-19T20:39:28.901Z,101387.06
2022-08-19T20:41:56.502Z,101385.09
2022-08-19T20:44:25.673Z,101391.66
2022-08-19T20:46:54.728Z,101394.38
2022-08-19T20:49:27.107Z,101397.81
2022-08-19T20:51:55.889Z,101398.88
2022-08-19T20:54:24.094Z,101399.81
2022-08-19T20:56:51.770Z,101404.19
2022-08-19T20:59:20.089Z,101406.06
2022-08-19T21:01:47.538Z,101399.97
2022-08-19T21:04:14.748Z,101397.50
2022-08-19T21:06:45.180Z,101406.25
2022-08-19T21:09:12.930Z,101400.97
2022-08-19T21:11:40.033Z,101406.56
2022-08-19T21:14:07.747Z,101403.78
2022-08-19T21:16:34.702Z,101420.00
2022-08-19T21:19:01.878Z,101409.38
2022-08-19T21:21:28.923Z,101414.78
2022-08-19T21:23:56.189Z,101414.78
2022-08-19T21:26:24.344Z,101410.41
2022-08-19T21:28:51.263Z,101408.72
2022-08-19T21:31:18.192Z,101413.06
2022-08-19T21:33:45.245Z,101406.53
2022-08-19T21:36:12.255Z,101403.25
2022-08-19T21:38:39.085Z,101400.31
2022-08-19T21:41:07.772Z,101401.91
2022-08-19T21:43:36.630Z,101400.97
2022-08-19T21:46:04.163Z,101403.75
2022-08-19T21:48:31.118Z,101410.09
2022-08-19T21:50:57.922Z,101407.41
2022-08-19T21:53:24.892Z,101408.56
2022-08-19T21:55:58.513Z,101419.78
2022-08-19T21:58:28.259Z,101412.63
2022-08-19T22:00:57.809Z,101421.16
2022-08-19T22:03:25.838Z,101413.69
2022-08-19T22:05:53.316Z,101410.44
2022-08-19T22:08:20.192Z,101420.53
2022-08-19T22:10:49.635Z,101413.69
2022-08-19T22:13:18.278Z,101411.25
2022-08-19T22:15:45.909Z,101409.59
2022-08-19T22:18:13.698Z,101413.09
2022-08-19T22:20:40.747Z,101413.84
2022-08-19T22:23:08.353Z,101413.94
2022-08-19T22:25:41.448Z,101411.06
2022-08-19T22:28:11.123Z,101404.41
2022-08-19T22:30:42.328Z,101402.00
2022-08-19T22:33:12.834Z,101397.44
2022-08-19T22:35:41.627Z,101387.69
2022-08-19T22:38:10.231Z,101397.56
2022-08-19T22:40:42.282Z,101402.16
2022-08-19T22:43:15.142Z,101394.00
2022-08-19T22:45:43.979Z,101390.50
2022-08-19T22:48:13.195Z,101395.44
2022-08-19T22:50:42.014Z,101396.09
2022-08-19T22:53:10.504Z,101402.53
2022-08-19T22:55:39.110Z,101401.09
2022-08-19T22:58:06.091Z,101397.28
2022-08-19T23:00:33.703Z,101401.06
2022-08-19T23:03:02.093Z,101401.88
2022-08-19T23:05:29.694Z,101402.75
2022-08-19T23:07:58.032Z,101403.66
2022-08-19T23:10:29.118Z,101407.75
2022-08-19T23:12:59.092Z,101417.44
2022-08-19T23:15:32.178Z,101423.13
2022-08-19T23:18:01.276Z,101427.97
2022-08-19T23:20:32.934Z,101420.09
2022-08-19T23:23:01.733Z,101425.28
2022-08-19T23:25:30.394Z,101423.19
2022-08-19T23:28:16.459Z,101427.63
2022-08-19T23:30:45.757Z,101421.75
2022-08-19T23:33:24.323Z,101417.41
2022-08-19T23:35:53.447Z,101426.50
2022-08-19T23:38:23.363Z,101423.97
2022-08-19T23:40:52.241Z,101422.47
2022-08-19T23:43:25.075Z,101425.19
2022-08-19T23:45:52.262Z,101418.56
2022-08-19T23:48:19.781Z,101429.66
2022-08-19T23:50:47.177Z,101426.66
2022-08-19T23:53:15.667Z,101427.63
2022-08-19T23:55:44.635Z,101427.97
2022-08-19T23:58:12.264Z,101434.03
